EKCHEPKK

Guest
Details From EKCH - Kastrup
To EPKK - Balice
Flight Number -
Tags Generated
Created
Modified
Stats Distance 422 nm / 782 km
Max Altitude 0 ft / 0 m
Waypoints 3
Social Downloads 1
Likes 0
Share VATSIM

Download

Looking for another format? Having issues loading an existing format? Contact us
Advertisement - Login to hide

Notes

Generated

Route

EKCH BALOS EPKK

ID Type Via Altitude Latitude Longitude Leg Dist Tot Dist Heading (true) Name
O EKCH APT - 0 ft / 0 m 55.62761˚ 12.62973˚ - 0 nm - -
BALOS FIX - 0 ft / 0 m 50.27556˚ 19.65833˚ 409 nm 409 nm 139° / 144° -
O EPKK APT - 0 ft / 0 m 50.07540˚ 19.76809˚ 12 nm 422 nm 161° / 161° -

Altitude Profile

Advertisement - Login to hide

Weather


0- 5 10 15 20 25 30 35+ Temperature / ° C

Clouds and Precipitation
Forecast for 2018-05-28 00:00 UTC. Updated 5 hours ago

Ground ~20,000 ft ~40,000 ft Winds

EKCH

Details ICAO EKCH (CPH)
Name Kastrup
Region Denmark / Faroe Islands
Timezone Europe/Copenhagen (UTC+2.0)
Stats Elevation 17 ft / 5 m (AMSL)
Location 55.612915° 12.640961°
Runways 3
Magnetic Variation 3.791° E

METAR

Not found

TAF

TAF EKCH 271711Z 2718/2818 08012KT 9999 BKN020 TEMPO 2800/2812 SHRA BKN040CB PROB40 TEMPO 2803/2809 TSRA

Decode

Departure Runways

ID Width Length Bearing (true) Bearing (mag) Surface Threshold Offset Overrun Length
04L 148 ft / 45 m 11,848 ft / 3,611 m 41.15° 37.36° Asphalt 0 ft / 0 m 0 ft / 0 m
04R 148 ft / 45 m 10,814 ft / 3,296 m 41.15° 37.36° Asphalt 0 ft / 0 m 0 ft / 0 m
12 148 ft / 45 m 10,047 ft / 3,063 m 123.21° 119.42° Asphalt 2,313 ft / 705 m 0 ft / 0 m
22L 148 ft / 45 m 10,814 ft / 3,296 m 221.17° 217.38° Asphalt 0 ft / 0 m 0 ft / 0 m
22R 148 ft / 45 m 11,848 ft / 3,611 m 221.18° 217.39° Asphalt 2,018 ft / 615 m 0 ft / 0 m
30 148 ft / 45 m 10,047 ft / 3,063 m 303.25° 299.46° Asphalt 886 ft / 270 m 0 ft / 0 m

EPKK

Details ICAO EPKK (KRK)
Name BALICE
Region Poland
Timezone Europe/Warsaw (UTC+2.0)
Stats Elevation 791 ft / 241 m (AMSL)
Location 50.077821° 19.785503°
Runways 1
Magnetic Variation 5.257° E

METAR

Not found

TAF

TAF EPKK 280230Z 2803/2903 05004KT CAVOK BECMG 2807/2809 08014KT

Decode

Destination Runways

ID Width Length Bearing (true) Bearing (mag) Surface Threshold Offset Overrun Length
07 197 ft / 60 m 8,343 ft / 2,543 m 77.75° 72.49° Concrete 0 ft / 0 m 0 ft / 0 m
25 197 ft / 60 m 8,343 ft / 2,543 m 257.77° 252.51° Concrete 784 ft / 239 m 0 ft / 0 m

Approach Navaids

Runway Type Ident Frequency Range Bearing (true) Bearing (mag) Slope Elevation
25 Localiser KRW 110.30 MHz 18 nm / 33 km 257.73° 252.47° - 791 ft / 241 m (AMSL)
25 Glidescope KRW 110.30 MHz 10 nm / 19 km 257.76° 252.50° 3.00° 791 ft / 241 m (AMSL)
25 DME KRW 110.30 MHz 18 nm / 33 km - - - 827 ft / 252 m (AMSL)

Popular Alternatives